Time;durP1;ratioP1;P1;durP2;ratioP2;P2;SDS_P1;SDS_P2;PMS_P1;PMS_P2;Temp;Humidity;BMP_temperature;BMP_pressure;BME280_temperature;BME280_humidity;BME280_pressure;Samples;Min_cycle;Max_cycle;Signal;HPM_P1;HPM_P2
2022/08/14 00:01:44;;;;;;;7.15;2.75;;;;;;;18.01;100.00;100991.31;5053647;28;20132;-82
2022/08/14 00:04:20;;;;;;;6.05;2.63;;;;;;;17.90;100.00;100986.72;5054422;28;20048;-82
2022/08/14 00:07:08;;;;;;;7.10;2.72;;;;;;;17.94;100.00;100993.50;5055440;28;20060;-82
2022/08/14 00:09:35;;;;;;;6.97;3.03;;;;;;;17.88;100.00;100993.03;5054269;28;20041;-82
2022/08/14 00:12:23;;;;;;;8.77;2.78;;;;;;;17.82;100.00;100987.16;5055544;28;20045;-82
2022/08/14 00:15:27;;;;;;;9.98;3.80;;;;;;;17.81;100.00;100990.78;5044386;28;20406;-82
2022/08/14 00:18:04;;;;;;;11.40;4.35;;;;;;;17.71;100.00;100984.34;5039419;28;20045;-82
2022/08/14 00:20:34;;;;;;;14.20;5.60;;;;;;;17.46;100.00;100991.19;5054265;28;20459;-82
2022/08/14 00:23:09;;;;;;;9.80;4.45;;;;;;;17.42;100.00;100988.81;5054912;28;20124;-82
2022/08/14 00:25:48;;;;;;;8.23;3.13;;;;;;;17.53;100.00;100966.97;5054012;28;20056;-82
2022/08/14 00:28:31;;;;;;;9.10;2.83;;;;;;;17.48;100.00;100985.81;5054266;28;20061;-82
2022/08/14 00:31:02;;;;;;;9.13;3.58;;;;;;;17.33;100.00;100982.31;5049502;28;20055;-82
2022/08/14 00:33:30;;;;;;;9.68;3.17;;;;;;;17.24;100.00;100977.59;5053670;28;20048;-82
2022/08/14 00:36:17;;;;;;;9.57;3.88;;;;;;;17.22;100.00;100977.69;5039963;28;20056;-82
2022/08/14 00:39:04;;;;;;;5.95;2.50;;;;;;;17.24;100.00;100981.06;5053735;28;20060;-82
2022/08/14 00:41:34;;;;;;;11.50;2.85;;;;;;;17.18;100.00;100967.41;5055131;28;20044;-82
2022/08/14 00:44:04;;;;;;;7.45;2.97;;;;;;;17.20;100.00;100966.34;5044037;28;20138;-82
2022/08/14 00:46:31;;;;;;;8.25;3.15;;;;;;;17.19;100.00;100969.06;5046832;28;20054;-82
2022/08/14 00:48:59;;;;;;;8.93;3.30;;;;;;;17.34;100.00;100973.44;5042604;28;20052;-82
2022/08/14 00:51:31;;;;;;;6.68;2.35;;;;;;;17.37;100.00;100967.09;5053430;28;20049;-82
2022/08/14 00:54:05;;;;;;;8.88;2.42;;;;;;;17.25;100.00;100968.72;5053699;28;20458;-82
2022/08/14 00:56:48;;;;;;;8.88;2.58;;;;;;;17.03;100.00;100937.44;5053932;28;20080;-82
2022/08/14 00:59:15;;;;;;;4.85;1.80;;;;;;;17.17;100.00;100955.94;5040701;28;20053;-81
2022/08/14 01:01:43;;;;;;;7.50;2.72;;;;;;;17.13;100.00;100967.66;5052899;28;20055;-81
2022/08/14 01:04:12;;;;;;;5.97;2.35;;;;;;;17.15;100.00;100951.69;5052660;28;20132;-82
2022/08/14 01:06:59;;;;;;;5.35;2.20;;;;;;;17.20;100.00;100952.28;5053135;28;20052;-82
2022/08/14 01:09:35;;;;;;;4.72;1.80;;;;;;;17.16;100.00;100956.91;5053434;28;20084;-82
2022/08/14 01:12:03;;;;;;;6.90;2.92;;;;;;;17.07;100.00;100949.53;5052981;28;20053;-82
2022/08/14 01:14:30;;;;;;;6.95;2.80;;;;;;;17.14;100.00;100936.75;5047282;28;20045;-82
2022/08/14 01:16:58;;;;;;;7.70;3.40;;;;;;;17.00;100.00;100942.94;5040796;28;20060;-82
2022/08/14 01:22:14;;;;;;;6.07;2.20;;;;;;;17.20;100.00;100936.41;5052735;28;20052;-82
2022/08/14 01:24:45;;;;;;;12.02;2.20;;;;;;;17.31;100.00;100955.09;5053605;28;20107;-82
2022/08/14 01:27:20;;;;;;;10.63;2.40;;;;;;;17.25;100.00;100939.59;5053037;28;20461;-82
2022/08/14 01:29:52;;;;;;;8.05;2.25;;;;;;;17.21;100.00;100946.00;5038133;28;20407;-82
2022/08/14 01:32:30;;;;;;;17.38;3.95;;;;;;;16.97;100.00;100935.16;5052108;28;20511;-82
2022/08/14 01:35:08;;;;;;;8.73;2.35;;;;;;;16.88;100.00;100910.13;5052168;28;20045;-82
2022/08/14 01:37:56;;;;;;;10.23;2.63;;;;;;;16.96;100.00;100938.75;5054191;28;20048;-82
2022/08/14 01:40:27;;;;;;;12.18;2.63;;;;;;;16.79;100.00;100937.13;5052383;28;20479;-82
2022/08/14 01:43:17;;;;;;;5.95;2.05;;;;;;;16.70;100.00;100941.16;5052596;28;20045;-82
2022/08/14 01:45:52;;;;;;;17.23;4.13;;;;;;;16.69;100.00;100935.00;5038383;28;20044;-82
2022/08/14 01:48:33;;;;;;;8.18;2.13;;;;;;;16.87;100.00;100922.53;5045056;28;20371;-82
2022/08/14 01:51:04;;;;;;;11.20;2.25;;;;;;;16.94;100.00;100932.72;5033014;28;20391;-82
2022/08/14 01:53:47;;;;;;;15.80;2.83;;;;;;;16.96;100.00;100925.53;5048748;28;20094;-82
2022/08/14 01:56:23;;;;;;;13.68;2.40;;;;;;;16.97;100.00;100920.16;5052857;28;20045;-82
2022/08/14 01:58:55;;;;;;;11.85;2.70;;;;;;;17.09;100.00;100921.19;5052286;28;20427;-82
2022/08/14 02:01:23;;;;;;;13.98;4.38;;;;;;;16.94;100.00;100928.25;5051223;28;20132;-82
2022/08/14 02:03:52;;;;;;;8.85;1.92;;;;;;;17.14;100.00;100928.81;5052245;28;20052;-82
2022/08/14 02:06:25;;;;;;;10.55;2.95;;;;;;;17.00;100.00;100922.59;5052939;28;20605;-82
2022/08/14 02:09:01;;;;;;;11.25;2.72;;;;;;;17.06;100.00;100922.22;5051778;28;20052;-82
2022/08/14 02:11:35;;;;;;;16.08;3.20;;;;;;;16.91;100.00;100925.81;5051349;28;20081;-82
2022/08/14 02:14:09;;;;;;;9.25;2.50;;;;;;;17.09;100.00;100934.41;5038177;28;20060;-82
2022/08/14 02:16:46;;;;;;;15.02;3.10;;;;;;;17.25;100.00;100916.63;5051106;28;20044;-82
2022/08/14 02:19:17;;;;;;;4.82;1.63;;;;;;;17.29;100.00;100927.88;5039132;28;20472;-82
2022/08/14 02:21:48;;;;;;;16.67;3.35;;;;;;;16.92;100.00;100916.94;5051011;28;20049;-82
2022/08/14 02:24:19;;;;;;;12.38;2.63;;;;;;;16.88;100.00;100904.84;5053226;28;20475;-82
2022/08/14 02:27:06;;;;;;;10.15;2.92;;;;;;;16.88;100.00;100913.63;5044018;28;20056;-82
2022/08/14 02:29:55;;;;;;;23.50;3.65;;;;;;;16.81;100.00;100911.44;5047643;28;20495;-82
2022/08/14 02:32:27;;;;;;;29.85;4.20;;;;;;;16.92;100.00;100905.50;5052007;28;20057;-82
2022/08/14 02:35:05;;;;;;;24.88;3.50;;;;;;;16.89;100.00;100917.09;5051982;28;20442;-82
2022/08/14 02:37:32;;;;;;;63.13;7.35;;;;;;;16.85;100.00;100905.03;5048264;28;20059;-82
2022/08/14 02:40:15;;;;;;;40.63;4.88;;;;;;;16.97;100.00;100911.38;5031926;28;20052;-82
2022/08/14 02:42:42;;;;;;;12.27;3.45;;;;;;;17.10;100.00;100917.59;5044415;28;20057;-82
2022/08/14 02:45:27;;;;;;;27.67;5.57;;;;;;;17.00;100.00;100892.66;5051806;28;20426;-82
2022/08/14 02:48:05;;;;;;;13.32;3.90;;;;;;;16.61;100.00;100900.25;5051224;28;20060;-82
2022/08/14 02:50:37;;;;;;;19.10;4.70;;;;;;;16.57;100.00;100906.66;5045714;28;20049;-82
2022/08/14 02:53:04;;;;;;;24.48;5.22;;;;;;;16.52;100.00;100898.19;5050789;28;20051;-82
2022/08/14 02:55:34;;;;;;;34.10;5.97;;;;;;;16.44;100.00;100884.56;5052481;28;20052;-82
2022/08/14 02:58:03;;;;;;;39.13;7.57;;;;;;;16.56;100.00;100902.34;5043711;28;20052;-82
2022/08/14 03:00:34;;;;;;;10.15;3.25;;;;;;;16.81;100.00;100896.41;5046723;28;20403;-82
2022/08/14 03:03:05;;;;;;;33.42;5.72;;;;;;;16.89;100.00;100891.53;5050072;28;20128;-82
2022/08/14 03:05:35;;;;;;;24.80;5.43;;;;;;;16.58;100.00;100891.66;5052672;28;20462;-82
2022/08/14 03:08:10;;;;;;;8.38;2.55;;;;;;;16.76;100.00;100902.91;5042035;28;20128;-82
2022/08/14 03:10:42;;;;;;;19.40;4.53;;;;;;;16.71;100.00;100895.25;5052290;28;20048;-82
2022/08/14 03:13:15;;;;;;;31.88;5.00;;;;;;;16.51;100.00;100885.91;5042109;28;20044;-82
2022/08/14 03:15:46;;;;;;;19.15;3.55;;;;;;;16.62;100.00;100880.81;5047825;28;20080;-82
2022/08/14 03:18:16;;;;;;;16.33;3.03;;;;;;;16.86;100.00;100875.84;5042458;28;20057;-82
2022/08/14 03:20:44;;;;;;;9.68;3.05;;;;;;;16.83;100.00;100869.88;5050905;28;20053;-82
2022/08/14 03:23:13;;;;;;;8.55;3.15;;;;;;;16.60;100.00;100887.13;5050975;28;20059;-82
2022/08/14 03:25:43;;;;;;;13.02;3.42;;;;;;;16.48;100.00;100870.22;5051101;28;20136;-82
2022/08/14 03:28:11;;;;;;;7.00;2.80;;;;;;;16.55;100.00;100868.06;5050766;28;20045;-82
2022/08/14 03:30:41;;;;;;;10.68;3.70;;;;;;;16.52;100.00;100871.75;5051128;28;20041;-82
2022/08/14 03:33:11;;;;;;;6.85;2.78;;;;;;;16.75;100.00;100874.75;5051497;28;20106;-82
2022/08/14 03:35:40;;;;;;;8.63;3.10;;;;;;;16.82;100.00;100862.88;5052139;28;20581;-82
2022/08/14 03:38:26;;;;;;;10.43;3.85;;;;;;;16.61;100.00;100855.31;5049375;28;20049;-82
2022/08/14 03:41:17;;;;;;;7.95;3.15;;;;;;;16.47;100.00;100856.16;5050723;28;20099;-82
2022/08/14 03:43:49;;;;;;;7.13;2.70;;;;;;;16.49;100.00;100861.34;5050714;28;20059;-82
2022/08/14 03:46:29;;;;;;;7.00;2.75;;;;;;;16.66;100.00;100858.53;5050093;28;20052;-82
2022/08/14 03:49:19;;;;;;;7.93;3.42;;;;;;;16.87;100.00;100847.59;5039875;28;20048;-82
2022/08/14 03:51:54;;;;;;;5.88;2.03;;;;;;;16.93;100.00;100828.72;5051659;28;20049;-82
2022/08/14 03:54:23;;;;;;;7.28;2.65;;;;;;;16.99;100.00;100833.59;5054244;28;20059;-82
2022/08/14 03:56:50;;;;;;;7.28;3.17;;;;;;;16.91;100.00;100835.03;5047613;28;20086;-82
2022/08/14 03:59:18;;;;;;;8.35;2.55;;;;;;;17.03;100.00;100821.91;5054434;28;20094;-82
2022/08/14 04:01:48;;;;;;;9.70;2.60;;;;;;;17.04;100.00;100828.03;5053807;28;20136;-82
2022/08/14 04:04:30;;;;;;;7.25;2.70;;;;;;;16.96;100.00;100827.66;5044266;28;20049;-82
2022/08/14 04:06:59;;;;;;;5.72;2.17;;;;;;;17.05;100.00;100816.50;5054110;28;20053;-82
2022/08/14 04:09:27;;;;;;;6.85;2.35;;;;;;;17.09;100.00;100823.31;5049548;28;20046;-82
2022/08/14 04:11:54;;;;;;;6.15;2.20;;;;;;;17.01;100.00;100821.13;5053646;28;20057;-82
2022/08/14 04:14:24;;;;;;;8.82;2.72;;;;;;;17.02;100.00;100819.38;5041613;28;20045;-82
2022/08/14 04:16:51;;;;;;;7.78;3.10;;;;;;;16.83;100.00;100809.06;5053307;28;20053;-82
2022/08/14 04:19:22;;;;;;;6.13;2.38;;;;;;;16.86;100.00;100819.47;5052613;28;20064;-82
2022/08/14 04:21:50;;;;;;;6.13;2.10;;;;;;;16.92;100.00;100807.66;5045745;28;20136;-81
2022/08/14 04:24:33;;;;;;;6.03;2.13;;;;;;;16.69;100.00;100805.47;5054059;28;20055;-82
2022/08/14 04:27:07;;;;;;;5.93;2.05;;;;;;;16.40;100.00;100809.91;5053386;28;20053;-82
2022/08/14 04:29:37;;;;;;;5.82;2.08;;;;;;;16.34;100.00;100799.69;5054980;28;20041;-82
2022/08/14 04:32:07;;;;;;;7.88;2.83;;;;;;;16.23;100.00;100810.06;5053563;28;20041;-82
2022/08/14 04:34:54;;;;;;;7.20;2.60;;;;;;;16.22;100.00;100813.66;5053908;28;20144;-82
2022/08/14 04:45:43;;;;;;;11.02;4.53;;;;;;;16.02;100.00;100814.84;5042778;28;20087;-82
2022/08/14 04:48:12;;;;;;;8.23;3.13;;;;;;;16.09;100.00;100824.09;5053015;28;20049;-82
2022/08/14 04:51:00;;;;;;;6.68;2.90;;;;;;;16.03;100.00;100814.75;5045939;28;20057;-82
2022/08/14 04:53:32;;;;;;;6.18;2.28;;;;;;;16.04;100.00;100800.63;5053409;28;20107;-82
2022/08/14 04:56:03;;;;;;;5.63;2.22;;;;;;;16.26;100.00;100797.53;5052941;28;20182;-82
2022/08/14 04:58:36;;;;;;;8.32;3.22;;;;;;;16.25;100.00;100805.53;5054003;28;20053;-82
2022/08/14 05:01:06;;;;;;;9.85;3.72;;;;;;;16.13;100.00;100802.72;5052851;28;20546;-82
2022/08/14 05:03:45;;;;;;;10.82;3.42;;;;;;;16.03;100.00;100798.91;5052237;28;20053;-82
2022/08/14 05:06:12;;;;;;;8.52;3.20;;;;;;;15.94;100.00;100805.59;5052927;28;20414;-82
2022/08/14 05:08:59;;;;;;;24.95;4.03;;;;;;;15.75;100.00;100789.13;5052775;28;20112;-82
2022/08/14 05:11:26;;;;;;;17.27;3.90;;;;;;;15.55;100.00;100782.34;5052576;28;20479;-82
2022/08/14 05:13:54;;;;;;;19.65;3.50;;;;;;;15.65;100.00;100788.78;5053405;28;20422;-81
2022/08/14 05:16:42;;;;;;;13.20;2.88;;;;;;;15.83;100.00;100788.66;5053554;28;20083;-82
2022/08/14 05:19:13;;;;;;;11.40;2.83;;;;;;;15.90;100.00;100785.59;5049038;28;20054;-82
2022/08/14 05:21:52;;;;;;;22.15;4.85;;;;;;;15.75;100.00;100779.41;5043290;28;20048;-82
2022/08/14 05:24:24;;;;;;;24.42;3.42;;;;;;;15.80;100.00;100797.63;5052546;28;20095;-82
2022/08/14 05:26:51;;;;;;;22.95;3.72;;;;;;;15.67;100.00;100783.41;5051502;28;20387;-81
2022/08/14 05:29:19;;;;;;;20.63;3.20;;;;;;;15.80;100.00;100804.72;5053185;28;20049;-82
2022/08/14 05:31:46;;;;;;;23.13;3.60;;;;;;;15.70;100.00;100801.72;5052972;28;20502;-82
2022/08/14 05:34:13;;;;;;;12.55;2.63;;;;;;;15.75;100.00;100786.47;5053927;28;20479;-82
2022/08/14 05:36:41;;;;;;;6.47;2.22;;;;;;;16.03;100.00;100769.88;5053071;28;20044;-82
2022/08/14 05:39:16;;;;;;;6.50;2.55;;;;;;;16.25;100.00;100797.63;5052681;28;20060;-82
2022/08/14 05:41:43;;;;;;;8.88;2.90;;;;;;;16.33;100.00;100783.00;5044389;28;20479;-82
2022/08/14 05:44:19;;;;;;;4.45;1.85;;;;;;;16.40;100.00;100772.91;5043534;28;20369;-82
2022/08/14 05:46:46;;;;;;;6.22;2.30;;;;;;;16.32;100.00;100786.59;5039097;28;20124;-81
2022/08/14 05:49:14;;;;;;;8.30;2.10;;;;;;;16.64;100.00;100790.84;5052721;28;20044;-82
2022/08/14 05:51:45;;;;;;;5.40;2.10;;;;;;;16.62;100.00;100788.28;5044681;28;20068;-82
2022/08/14 05:54:12;;;;;;;13.55;2.85;;;;;;;16.43;100.00;100774.50;5052551;28;20053;-82
2022/08/14 05:56:53;;;;;;;11.10;2.38;;;;;;;16.29;100.00;100780.66;5052095;28;20418;-82
2022/08/14 05:59:20;;;;;;;8.48;2.10;;;;;;;16.13;100.00;100773.66;5051991;28;20052;-83
2022/08/14 06:02:08;;;;;;;9.45;2.20;;;;;;;15.96;100.00;100792.28;5052140;28;20048;-83
2022/08/14 06:04:37;;;;;;;6.45;1.90;;;;;;;16.32;100.00;100778.69;5044123;28;20099;-82
2022/08/14 06:07:05;;;;;;;6.10;2.10;;;;;;;16.21;100.00;100749.41;5051709;28;20053;-83
2022/08/14 06:09:32;;;;;;;9.18;2.92;;;;;;;15.83;100.00;100733.22;5044565;28;20045;-83
2022/08/14 06:12:09;;;;;;;5.72;2.00;;;;;;;15.94;100.00;100768.63;5046462;28;20079;-82
2022/08/14 06:14:38;;;;;;;3.55;1.48;;;;;;;15.87;100.00;100722.41;5044320;28;20053;-82
2022/08/14 06:17:05;;;;;;;7.57;2.42;;;;;;;16.40;100.00;100754.41;5046483;28;20487;-82
2022/08/14 06:19:32;;;;;;;7.47;2.28;;;;;;;16.52;100.00;100726.38;5051634;28;20057;-82
2022/08/14 06:21:59;;;;;;;4.32;1.73;;;;;;;16.57;100.00;100723.44;5052351;28;20070;-81
2022/08/14 06:24:28;;;;;;;4.63;1.60;;;;;;;16.49;100.00;100737.97;5033991;28;20112;-82
2022/08/14 06:26:59;;;;;;;5.93;2.00;;;;;;;16.45;100.00;100740.91;5040254;28;20053;-82
2022/08/14 06:29:32;;;;;;;5.03;1.90;;;;;;;16.51;100.00;100724.69;5039481;28;20450;-82
2022/08/14 06:32:00;;;;;;;5.18;1.92;;;;;;;16.84;100.00;100745.53;5048202;28;20447;-81
2022/08/14 06:34:47;;;;;;;7.53;1.90;;;;;;;16.52;100.00;100698.16;5052237;28;20379;-81
2022/08/14 06:37:47;;;;;;;5.00;1.65;;;;;;;16.75;100.00;100738.16;5048913;28;20518;-81
2022/08/14 06:40:17;;;;;;;8.60;1.80;;;;;;;16.53;100.00;100693.72;5051654;28;20052;-82
2022/08/14 06:43:05;;;;;;;6.80;1.77;;;;;;;16.39;100.00;100691.94;5052311;28;20045;-82
2022/08/14 06:45:35;;;;;;;7.05;1.80;;;;;;;16.80;100.00;100693.75;5052749;28;20049;-81
2022/08/14 06:48:13;;;;;;;3.83;1.42;;;;;;;17.14;100.00;100717.19;5044093;28;20057;-81
2022/08/14 06:50:44;;;;;;;4.68;1.73;;;;;;;17.12;100.00;100688.19;5041120;28;20041;-82
2022/08/14 06:53:13;;;;;;;4.03;1.48;;;;;;;17.17;100.00;100695.81;5038465;28;20540;-81
2022/08/14 06:55:41;;;;;;;5.20;1.98;;;;;;;16.97;100.00;100694.50;5051223;28;20099;-81
2022/08/14 06:58:23;;;;;;;6.60;2.03;;;;;;;17.31;100.00;100703.69;5033059;28;20488;-82
2022/08/14 07:06:49;;;;;;;6.63;1.80;;;;;;;18.79;100.00;100673.13;5040760;28;20053;-82
2022/08/14 07:09:16;;;;;;;4.95;1.63;;;;;;;18.62;100.00;100668.19;5052203;28;20056;-82
2022/08/14 07:11:49;;;;;;;4.38;1.70;;;;;;;17.86;100.00;100640.03;5050804;28;20057;-82
2022/08/14 07:14:16;;;;;;;3.30;1.40;;;;;;;18.69;100.00;100677.38;5052732;28;20051;-82
2022/08/14 07:16:43;;;;;;;3.20;1.27;;;;;;;19.12;100.00;100658.34;5052107;28;20090;-82
2022/08/14 07:19:10;;;;;;;3.63;1.35;;;;;;;19.63;100.00;100670.44;5038667;28;20053;-82
2022/08/14 07:21:38;;;;;;;4.80;1.83;;;;;;;20.03;100.00;100674.50;5051929;28;20558;-82
2022/08/14 07:24:05;;;;;;;4.90;1.50;;;;;;;20.33;100.00;100660.59;5052136;28;20052;-82
2022/08/14 07:26:51;;;;;;;3.38;1.40;;;;;;;20.84;100.00;100694.63;5052257;28;20128;-82
2022/08/14 07:29:21;;;;;;;3.72;1.38;;;;;;;20.83;100.00;100665.47;5055458;28;20141;-82
2022/08/14 07:31:52;;;;;;;4.70;1.83;;;;;;;20.58;100.00;100661.28;5043900;28;20136;-82
2022/08/14 07:34:19;;;;;;;4.63;1.80;;;;;;;19.57;100.00;100648.84;5044761;28;20115;-82
2022/08/14 07:37:05;;;;;;;1.98;0.95;;;;;;;19.94;100.00;100677.88;5046620;28;20040;-82
2022/08/14 07:39:32;;;;;;;2.67;1.17;;;;;;;20.39;100.00;100667.22;5055135;28;20060;-82
2022/08/14 07:42:00;;;;;;;3.33;1.25;;;;;;;20.27;100.00;100691.19;5054696;28;20041;-82
2022/08/14 07:44:27;;;;;;;3.70;1.50;;;;;;;19.96;100.00;100674.13;5056099;28;20057;-82
2022/08/14 07:47:14;;;;;;;5.50;1.90;;;;;;;19.02;100.00;100677.72;5046713;28;20049;-82
2022/08/14 07:49:53;;;;;;;5.07;1.55;;;;;;;18.75;100.00;100666.34;5056041;28;20080;-82
2022/08/14 07:52:22;;;;;;;3.45;1.27;;;;;;;19.35;100.00;100669.03;5042136;28;20451;-82
2022/08/14 07:54:56;;;;;;;4.32;1.63;;;;;;;19.77;100.00;100661.44;5048782;28;20494;-82
2022/08/14 07:57:23;;;;;;;4.50;1.65;;;;;;;19.54;100.00;100633.97;5047290;28;20063;-82
2022/08/14 07:59:50;;;;;;;3.63;1.52;;;;;;;19.86;100.00;100684.63;5055632;28;20062;-83
2022/08/14 08:02:18;;;;;;;5.28;1.92;;;;;;;20.08;100.00;100673.19;5045261;28;20045;-83
2022/08/14 08:04:55;;;;;;;7.10;1.90;;;;;;;19.54;100.00;100700.34;5055978;28;20045;-83
2022/08/14 08:07:27;;;;;;;7.85;3.28;;;;;;;19.45;100.00;100670.03;5046799;28;20064;-83
2022/08/14 08:09:58;;;;;;;5.60;2.05;;;;;;;19.54;100.00;100660.50;5054744;28;20064;-83
2022/08/14 08:12:28;;;;;;;6.50;2.72;;;;;;;19.73;100.00;100689.19;5045867;28;20114;-83
2022/08/14 08:14:59;;;;;;;5.15;1.73;;;;;;;19.78;100.00;100688.84;5055510;28;20045;-83
2022/08/14 08:17:36;;;;;;;5.38;1.70;;;;;;;19.65;100.00;100662.34;5054752;28;20055;-83
2022/08/14 08:20:14;;;;;;;5.10;1.95;;;;;;;19.79;100.00;100682.56;5055765;28;20332;-83
2022/08/14 08:22:47;;;;;;;5.97;1.98;;;;;;;19.54;100.00;100656.03;5054527;28;20044;-81
2022/08/14 08:25:23;;;;;;;4.00;1.73;;;;;;;20.58;100.00;100637.34;5045797;28;20053;-82
2022/08/14 08:28:19;;;;;;;3.22;1.27;;;;;;;20.63;100.00;100659.97;5050232;28;20063;-82
2022/08/14 08:30:55;;;;;;;2.88;1.20;;;;;;;20.60;100.00;100676.13;5054277;28;20387;-82
2022/08/14 08:33:27;;;;;;;2.25;0.95;;;;;;;20.50;100.00;100637.94;5055538;28;20103;-81
2022/08/14 08:36:07;;;;;;;2.53;1.15;;;;;;;20.48;100.00;100645.22;5055504;28;20107;-82
2022/08/14 08:38:47;;;;;;;4.28;1.20;;;;;;;21.09;100.00;100667.78;5040557;28;20045;-81
2022/08/14 08:41:52;;;;;;;3.38;1.13;;;;;;;20.53;100.00;100644.84;5054618;28;20068;-83
2022/08/14 08:44:21;;;;;;;2.75;1.08;;;;;;;20.85;100.00;100668.84;5053786;28;20056;-82
2022/08/14 08:47:04;;;;;;;3.65;1.30;;;;;;;20.31;100.00;100635.97;5053757;28;20459;-82
2022/08/14 08:49:41;;;;;;;3.95;1.45;;;;;;;20.76;100.00;100640.34;5054926;28;20076;-82
2022/08/14 08:52:15;;;;;;;3.88;1.45;;;;;;;21.02;100.00;100628.38;5053560;28;20077;-82
2022/08/14 08:54:57;;;;;;;4.63;1.65;;;;;;;21.12;100.00;100652.41;5055026;28;20049;-82
2022/08/14 08:57:24;;;;;;;3.78;1.40;;;;;;;21.15;100.00;100633.53;5041243;28;20468;-82
2022/08/14 08:59:52;;;;;;;4.50;1.55;;;;;;;20.59;100.00;100631.91;5054167;28;20049;-82
2022/08/14 09:02:21;;;;;;;6.53;2.38;;;;;;;20.05;100.00;100662.78;5053556;28;20475;-82
2022/08/14 09:05:00;;;;;;;6.30;2.20;;;;;;;20.18;100.00;100625.44;5054543;28;20055;-82
2022/08/14 09:07:27;;;;;;;5.22;1.98;;;;;;;20.32;100.00;100660.72;5054497;28;20041;-82
2022/08/14 09:09:56;;;;;;;7.07;2.60;;;;;;;20.51;100.00;100634.34;5053487;28;20487;-82
2022/08/14 09:12:30;;;;;;;5.25;1.80;;;;;;;20.79;100.00;100653.41;5053380;28;20550;-82
2022/08/14 09:15:05;;;;;;;6.40;2.05;;;;;;;20.71;100.00;100623.91;5044629;28;20433;-82
2022/08/14 09:17:39;;;;;;;8.77;3.30;;;;;;;20.29;100.00;100600.66;5053246;28;20048;-82
2022/08/14 09:20:07;;;;;;;8.18;3.38;;;;;;;20.40;100.00;100637.03;5054565;28;20407;-82
2022/08/14 09:22:39;;;;;;;5.93;2.17;;;;;;;20.35;100.00;100602.00;5040016;28;20081;-83
2022/08/14 09:25:14;;;;;;;6.28;2.33;;;;;;;20.78;100.00;100601.16;5054179;28;20056;-83
2022/08/14 09:27:41;;;;;;;6.03;2.20;;;;;;;21.03;100.00;100607.94;5054260;28;20055;-82
2022/08/14 09:30:09;;;;;;;8.18;3.20;;;;;;;21.24;100.00;100574.16;5052766;28;20051;-82
2022/08/14 09:32:58;;;;;;;6.43;2.47;;;;;;;21.67;100.00;100644.25;5053905;28;20056;-82
2022/08/14 09:35:41;;;;;;;8.38;3.50;;;;;;;22.08;100.00;100641.63;5053826;28;20127;-82
2022/08/14 09:38:36;;;;;;;10.05;4.53;;;;;;;21.96;100.00;100644.41;5054117;28;20085;-82
2022/08/14 09:41:12;;;;;;;6.88;2.70;;;;;;;21.66;100.00;100620.44;5052703;28;20079;-83
2022/08/14 09:43:50;;;;;;;8.32;3.40;;;;;;;21.57;100.00;100627.41;5051617;28;20053;-82
2022/08/14 09:46:17;;;;;;;7.10;2.90;;;;;;;21.34;100.00;100619.50;5045488;28;20056;-82
2022/08/14 09:49:05;;;;;;;7.45;3.00;;;;;;;22.05;100.00;100624.09;5053141;28;20048;-83
2022/08/14 09:51:41;;;;;;;7.80;3.03;;;;;;;21.57;100.00;100598.09;5053659;28;20132;-82
2022/08/14 09:54:17;;;;;;;7.28;3.03;;;;;;;21.77;100.00;100636.31;5052651;28;20072;-82
2022/08/14 09:56:50;;;;;;;7.97;3.20;;;;;;;22.09;100.00;100636.16;5052174;28;20388;-82
2022/08/14 09:59:26;;;;;;;11.10;4.47;;;;;;;21.45;100.00;100602.59;5053825;28;20064;-83
2022/08/14 10:01:59;;;;;;;9.20;4.05;;;;;;;21.07;100.00;100606.72;5051009;28;20050;-82
2022/08/14 10:04:27;;;;;;;9.15;4.28;;;;;;;21.04;100.00;100607.81;5046612;28;20478;-82
2022/08/14 10:07:04;;;;;;;8.05;3.38;;;;;;;21.07;100.00;100627.16;5053452;28;20049;-82
2022/08/14 10:09:47;;;;;;;8.85;3.42;;;;;;;21.36;100.00;100598.91;5052177;28;20088;-82
2022/08/14 10:12:41;;;;;;;9.13;4.30;;;;;;;20.88;100.00;100601.25;5053478;28;20490;-82
2022/08/14 10:15:18;;;;;;;7.72;3.40;;;;;;;20.95;100.00;100637.03;5053326;28;20372;-82
2022/08/14 10:17:47;;;;;;;6.22;2.50;;;;;;;21.46;100.00;100620.31;5051050;28;20053;-82
2022/08/14 10:20:21;;;;;;;5.55;2.03;;;;;;;21.21;100.00;100611.72;5052049;28;20080;-82
2022/08/14 10:23:14;;;;;;;6.70;2.72;;;;;;;21.11;100.00;100640.09;5040806;28;20052;-82
2022/08/14 10:25:49;;;;;;;7.78;3.10;;;;;;;20.78;100.00;100636.56;5052595;28;20053;-82
2022/08/14 10:28:20;;;;;;;7.35;2.47;;;;;;;20.73;100.00;100630.78;5052894;28;20048;-82
2022/08/14 10:31:30;;;;;;;6.90;2.65;;;;;;;20.41;100.00;100628.06;5053049;28;20111;-82
2022/08/14 10:34:12;;;;;;;;;;;;;;;20.39;100.00;100620.22;5048773;28;20057;-82
2022/08/14 10:36:46;;;;;;;10.30;4.22;;;;;;;20.25;100.00;100623.13;5035278;28;19990;-82
2022/08/14 10:39:28;;;;;;;10.73;5.28;;;;;;;20.28;100.00;100614.91;5044474;28;20071;-82
2022/08/14 10:42:10;;;;;;;12.88;6.78;;;;;;;20.12;100.00;100607.34;5052683;28;20041;-82
2022/08/14 10:44:48;;;;;;;10.50;5.75;;;;;;;20.47;100.00;100614.28;5052773;28;20049;-82
2022/08/14 10:47:18;;;;;;;12.90;6.57;;;;;;;20.34;100.00;100587.00;5049631;28;20525;-82
2022/08/14 10:50:06;;;;;;;10.88;5.57;;;;;;;20.15;100.00;100572.53;5047279;28;20068;-82
2022/08/14 10:52:37;;;;;;;8.48;3.47;;;;;;;20.84;100.00;100539.44;5051463;28;20077;-82
2022/08/14 10:55:14;;;;;;;11.43;4.88;;;;;;;20.64;100.00;100571.19;5051332;28;20053;-82
2022/08/14 10:57:53;;;;;;;9.88;4.63;;;;;;;21.57;100.00;100590.09;5052832;28;20063;-82
2022/08/14 11:00:25;;;;;;;9.07;4.50;;;;;;;22.16;100.00;100570.66;5051282;28;20106;-82
2022/08/14 11:03:16;;;;;;;7.95;3.40;;;;;;;21.88;100.00;100592.75;5051082;28;20049;-82
2022/08/14 11:06:18;;;;;;;9.23;4.50;;;;;;;21.54;100.00;100579.69;5052597;28;20068;-82
2022/08/14 11:08:47;;;;;;;9.53;4.40;;;;;;;21.75;100.00;100561.84;5051458;28;20057;-82
2022/08/14 11:11:16;;;;;;;10.60;4.65;;;;;;;21.16;100.00;100546.50;5051687;28;20047;-82
2022/08/14 11:13:49;;;;;;;7.57;2.78;;;;;;;21.92;100.00;100587.03;5052304;28;20053;-82
2022/08/14 11:16:17;;;;;;;;;;;;;;;21.61;100.00;100584.34;5051754;28;20136;-82
2022/08/14 11:18:50;;;;;;;8.00;2.95;;;;;;;21.26;100.00;100583.84;5051467;28;19926;-82
2022/08/14 11:21:21;;;;;;;9.00;3.88;;;;;;;21.34;100.00;100582.22;5050684;28;20092;-82
2022/08/14 11:23:49;;;;;;;8.18;3.03;;;;;;;21.36;100.00;100571.44;5047254;28;20457;-82
2022/08/14 11:26:26;;;;;;;10.30;4.10;;;;;;;21.66;100.00;100554.66;5038230;28;20045;-82
2022/08/14 11:28:58;;;;;;;;;;;;;;;21.59;100.00;100573.00;5043794;28;20080;-82
2022/08/14 11:31:30;;;;;;;9.40;3.60;;;;;;;21.82;100.00;100529.34;5046374;28;19991;-82
2022/08/14 11:34:05;;;;;;;10.32;5.32;;;;;;;21.10;100.00;100539.88;5041014;28;20120;-83
2022/08/14 11:36:51;;;;;;;11.70;6.47;;;;;;;21.09;100.00;100540.00;5050999;28;20506;-82
2022/08/14 11:39:39;;;;;;;9.35;4.30;;;;;;;21.57;100.00;100547.47;5050720;28;20056;-82
2022/08/14 11:42:18;;;;;;;11.05;5.47;;;;;;;21.09;100.00;100545.34;5036776;28;20059;-82
2022/08/14 11:45:05;;;;;;;10.63;4.28;;;;;;;21.35;100.00;100512.00;5051057;28;20487;-82
2022/08/14 11:47:43;;;;;;;11.00;5.57;;;;;;;21.44;100.00;100547.66;5051227;28;20049;-82
2022/08/14 11:50:33;;;;;;;10.90;4.78;;;;;;;21.79;100.00;100519.78;5050291;28;20041;-82
2022/08/14 11:53:19;;;;;;;11.23;5.88;;;;;;;22.12;100.00;100531.09;5050866;28;20423;-82
2022/08/14 11:55:46;;;;;;;9.82;4.50;;;;;;;21.58;100.00;100534.03;5050638;28;20041;-82
2022/08/14 11:58:15;;;;;;;10.10;5.05;;;;;;;21.61;100.00;100519.59;5050832;28;20118;-82
2022/08/14 12:00:53;;;;;;;13.23;5.57;;;;;;;21.72;100.00;100516.81;5037460;28;20041;-82
2022/08/14 12:03:20;;;;;;;13.50;6.15;;;;;;;21.82;100.00;100526.69;5050924;28;20045;-82
2022/08/14 12:06:13;;;;;;;10.48;5.28;;;;;;;22.27;100.00;100511.06;5051856;28;20049;-82